Aviation Digital Data Service (ADDS)

Output produced by METARs form (1525 UTC 19 January 2019)
found at http://www.aviationweather.gov/metar/data/
 
METAR text: OAKB 191450Z 00000KT 5000 1500S -DZ BR FEW005 SCT020 OVC045 01/00 Q1022 NOSIG RMK A3020 R1129//95 WHT WHT
Conditions at: OAKB (KABUL INTL (MIL), AF) observed 1450 UTC 19 January 2019
Temperature: 1.0°C (34°F)
Dewpoint: 0.0°C (32°F) [RH = 93%]
Pressure (altimeter): 30.18 inches Hg (1022.0 mb)
Winds: calm
Visibility: 3 miles ( 5 km)
Ceiling: 4500 feet AGL
Clouds: few clouds at 500 feet AGL
scattered clouds at 2000 feet AGL
overcast cloud deck at 4500 feet AGL
Weather: -DZ BR  (light drizzle, mist)

METAR text: OAKB 191350Z 13002KT 5000 1500S -DZ BR FEW004 OVC008 01/00 Q1022 RERASN NOSIG RMK A3020 R1129//95 GRN GRN
Conditions at: OAKB (KABUL INTL (MIL), AF) observed 1350 UTC 19 January 2019
Temperature: 1.0°C (34°F)
Dewpoint: 0.0°C (32°F) [RH = 93%]
Pressure (altimeter): 30.18 inches Hg (1022.0 mb)
Winds: from the SE (130 degrees) at 2 MPH (2 knots; 1.0 m/s)
Visibility: 3 miles ( 5 km)
Ceiling: 800 feet AGL
Clouds: few clouds at 400 feet AGL
overcast cloud deck at 800 feet AGL
Weather: -DZ BR  (light drizzle, mist)

METAR text: OAKB 191250Z VRB02KT 5000 2000SE -RASN BR FEW003 OVC009 01/01 Q1019 NOSIG RMK A3019 R1129//95 GRN GRN
Conditions at: OAKB (KABUL INTL (MIL), AF) observed 1250 UTC 19 January 2019
Temperature: 1.0°C (34°F)
Dewpoint: 1.0°C (34°F) [RH = 100%]
Pressure (altimeter): 30.09 inches Hg (1019.0 mb)
Winds: variable direction winds at 2 MPH (2 knots; 1.0 m/s)
Visibility: 3 miles ( 5 km)
Ceiling: 900 feet AGL
Clouds: few clouds at 300 feet AGL
overcast cloud deck at 900 feet AGL
Weather: SN -RA BR  (moderate snow, light rain, mist)

METAR text: OAKB 191150Z VRB01KT 3500 -RASN BR OVC007 01/01 Q1022 RESNRA NOSIG RMK A3018 R1129//95 YLO YLO
Conditions at: OAKB (KABUL INTL (MIL), AF) observed 1150 UTC 19 January 2019
Temperature: 1.0°C (34°F)
Dewpoint: 1.0°C (34°F) [RH = 100%]
Pressure (altimeter): 30.18 inches Hg (1022.0 mb)
Winds: variable direction winds at 1 MPH (1 knots; 0.5 m/s)
Visibility: 2.17 miles (3.49 km)
Ceiling: 700 feet AGL
Clouds: overcast cloud deck at 700 feet AGL
Weather: -RA -SN BR  (light rain, light snow, mist)

METAR text: OAKB 191057Z 12002KT 1800 1000SE -SNRA BR SCT007 OVC020 01/01 Q1022 RMK A3019 R1129//95 YLO
Conditions at: OAKB (KABUL INTL (MIL), AF) observed 1057 UTC 19 January 2019
Temperature: 1.0°C (34°F)
Dewpoint: 1.0°C (34°F) [RH = 100%]
Pressure (altimeter): 30.18 inches Hg (1022.0 mb)
Winds: from the ESE (120 degrees) at 2 MPH (2 knots; 1.0 m/s)
Visibility: 1.12 miles (1.80 km)
Ceiling: 2000 feet AGL
Clouds: scattered clouds at 700 feet AGL
overcast cloud deck at 2000 feet AGL
Weather: -SN RA BR  (light snow, moderate rain, mist)

METAR text: OAKB 191050Z 00000KT 1800 1000SE BR SCT007 OVC020 01/01 Q1022 RESNRA NOSIG RMK A3019 R1129//95 YLO YLO
Conditions at: OAKB (KABUL INTL (MIL), AF) observed 1050 UTC 19 January 2019
Temperature: 1.0°C (34°F)
Dewpoint: 1.0°C (34°F) [RH = 100%]
Pressure (altimeter): 30.18 inches Hg (1022.0 mb)
Winds: calm
Visibility: 1.12 miles (1.80 km)
Ceiling: 2000 feet AGL
Clouds: scattered clouds at 700 feet AGL
overcast cloud deck at 2000 feet AGL
Weather: BR  (mist)

METAR text: OAKB 190950Z 09003KT 1600 1000SE -SNRA BR FEW005 OVC020 01/00 Q1022 REDZ NOSIG RMK A3019 R1129//95 YLO YLO
Conditions at: OAKB (KABUL INTL (MIL), AF) observed 0950 UTC 19 January 2019
Temperature: 1.0°C (34°F)
Dewpoint: 0.0°C (32°F) [RH = 93%]
Pressure (altimeter): 30.18 inches Hg (1022.0 mb)
Winds: from the E (90 degrees) at 3 MPH (3 knots; 1.5 m/s)
Visibility: 0.99 miles (1.59 km)
Ceiling: 2000 feet AGL
Clouds: few clouds at 500 feet AGL
overcast cloud deck at 2000 feet AGL
Weather: -SN RA BR  (light snow, moderate rain, mist)

METAR text: OAKB 190931Z 11003KT 1200 -SNRA BR FEW003 BKN006 OVC020 01/00 Q1022 REDZ RMK A3019 R1129//95 YLO
Conditions at: OAKB (KABUL INTL (MIL), AF) observed 0931 UTC 19 January 2019
Temperature: 1.0°C (34°F)
Dewpoint: 0.0°C (32°F) [RH = 93%]
Pressure (altimeter): 30.18 inches Hg (1022.0 mb)
Winds: from the ESE (110 degrees) at 3 MPH (3 knots; 1.5 m/s)
Visibility: 0.75 miles (1.21 km)
Ceiling: 600 feet AGL
Clouds: few clouds at 300 feet AGL
broken clouds at 600 feet AGL
overcast cloud deck at 2000 feet AGL
Weather: -SN -RA BR  (light snow, light rain, mist)

METAR text: OAKB 190906Z 12004KT 1800 0900SE -SNRA BR FEW002 BKN005 OVC020 01/00 Q1022 REDZ RMK A3020 R1129//95 YLO
Conditions at: OAKB (KABUL INTL (MIL), AF) observed 0906 UTC 19 January 2019
Temperature: 1.0°C (34°F)
Dewpoint: 0.0°C (32°F) [RH = 93%]
Pressure (altimeter): 30.18 inches Hg (1022.0 mb)
Winds: from the ESE (120 degrees) at 5 MPH (4 knots; 2.1 m/s)
Visibility: 1.12 miles (1.80 km)
Ceiling: 500 feet AGL
Clouds: few clouds at 200 feet AGL
broken clouds at 500 feet AGL
overcast cloud deck at 2000 feet AGL
Weather: -SN RA BR  (light snow, moderate rain, mist)

METAR text: OAKB 190850Z VRB01KT 2000 1000SE -DZ BR SCT004 OVC020 02/01 Q1022 RESN NOSIG RMK A3020 R1129//95 YLO YLO
Conditions at: OAKB (KABUL INTL (MIL), AF) observed 0850 UTC 19 January 2019
Temperature: 2.0°C (36°F)
Dewpoint: 1.0°C (34°F) [RH = 93%]
Pressure (altimeter): 30.18 inches Hg (1022.0 mb)
Winds: variable direction winds at 1 MPH (1 knots; 0.5 m/s)
Visibility: 1.24 miles (2.00 km)
Ceiling: 2000 feet AGL
Clouds: scattered clouds at 400 feet AGL
overcast cloud deck at 2000 feet AGL
Weather: -DZ BR  (light drizzle, mist)

METAR text: OAKB 190809Z 33003KT 2000 1000SE -RASN BR SCT004 BKN015 OVC023 02/01 Q1023 RESN RMK A3021 R1129//95 YLO
Conditions at: OAKB (KABUL INTL (MIL), AF) observed 0809 UTC 19 January 2019
Temperature: 2.0°C (36°F)
Dewpoint: 1.0°C (34°F) [RH = 93%]
Pressure (altimeter): 30.21 inches Hg (1023.0 mb)
Winds: from the NNW (330 degrees) at 3 MPH (3 knots; 1.5 m/s)
Visibility: 1.24 miles (2.00 km)
Ceiling: 1500 feet AGL
Clouds: scattered clouds at 400 feet AGL
broken clouds at 1500 feet AGL
overcast cloud deck at 2300 feet AGL
Weather: SN -RA BR  (moderate snow, light rain, mist)

METAR text: OAKB 190750Z 00000KT 1600 0700SE SN BR FEW003 BKN007 OVC010 01/00 Q1023 RERASN RMK A3022 R1129//95 YLO YLO
Conditions at: OAKB (KABUL INTL (MIL), AF) observed 0750 UTC 19 January 2019
Temperature: 1.0°C (34°F)
Dewpoint: 0.0°C (32°F) [RH = 93%]
Pressure (altimeter): 30.21 inches Hg (1023.0 mb)
Winds: calm
Visibility: 0.99 miles (1.59 km)
Ceiling: 700 feet AGL
Clouds: few clouds at 300 feet AGL
broken clouds at 700 feet AGL
overcast cloud deck at 1000 feet AGL
Weather: SN BR  (moderate snow, mist)

METAR text: OAKB 190550Z 10002KT 0800 0600SE -SNRA FG FEW003 BKN007 OVC010 02/01 Q1024 RESN NOSIG RMK A3025 R1129//95 AMB AMB
Conditions at: OAKB (KABUL INTL (MIL), AF) observed 0550 UTC 19 January 2019
Temperature: 2.0°C (36°F)
Dewpoint: 1.0°C (34°F) [RH = 93%]
Pressure (altimeter): 30.24 inches Hg (1024.0 mb)
Winds: from the E (100 degrees) at 2 MPH (2 knots; 1.0 m/s)
Visibility: 0.50 miles (0.80 km)
Ceiling: 700 feet AGL
Clouds: few clouds at 300 feet AGL
broken clouds at 700 feet AGL
overcast cloud deck at 1000 feet AGL
Weather: -SN RA FG  (light snow, moderate rain, fog)

METAR text: OAKB 190450Z 07002KT 0600 -SN FG FEW002 BKN007 OVC015 01/00 Q1024 NOSIG RMK A3024 R1129//95 RED RED
Conditions at: OAKB (KABUL INTL (MIL), AF) observed 0450 UTC 19 January 2019
Temperature: 1.0°C (34°F)
Dewpoint: 0.0°C (32°F) [RH = 93%]
Pressure (altimeter): 30.24 inches Hg (1024.0 mb)
Winds: from the ENE (70 degrees) at 2 MPH (2 knots; 1.0 m/s)
Visibility: 0.37 miles (0.60 km)
Ceiling: 700 feet AGL
Clouds: few clouds at 200 feet AGL
broken clouds at 700 feet AGL
overcast cloud deck at 1500 feet AGL
Weather: -SN FG  (light snow, fog)

METAR text: OAKB 190411Z 18002KT 0600 -SN FG FEW002 BKN004 OVC015 01/00 Q1024 RMK A3024 R1129//95 RED
Conditions at: OAKB (KABUL INTL (MIL), AF) observed 0411 UTC 19 January 2019
Temperature: 1.0°C (34°F)
Dewpoint: 0.0°C (32°F) [RH = 93%]
Pressure (altimeter): 30.24 inches Hg (1024.0 mb)
Winds: from the S (180 degrees) at 2 MPH (2 knots; 1.0 m/s)
Visibility: 0.37 miles (0.60 km)
Ceiling: 400 feet AGL
Clouds: few clouds at 200 feet AGL
broken clouds at 400 feet AGL
overcast cloud deck at 1500 feet AGL
Weather: -SN FG  (light snow, fog)

METAR text: OAKB 190350Z 00000KT 1000 -SN FG SCT003 OVC008 00/00 Q1023 RESN NOSIG RMK A3022 R1129//95 AMB AMB
Conditions at: OAKB (KABUL INTL (MIL), AF) observed 0350 UTC 19 January 2019
Temperature: 0.0°C (32°F)
Dewpoint: 0.0°C (32°F) [RH = 100%]
Pressure (altimeter): 30.21 inches Hg (1023.0 mb)
Winds: calm
Visibility: 0.62 miles (1.00 km)
Ceiling: 800 feet AGL
Clouds: scattered clouds at 300 feet AGL
overcast cloud deck at 800 feet AGL
Weather: -SN FG  (light snow, fog)

METAR text: OAKB 190252Z 10002KT 0600 SN FG SCT003 OVC008 00/M00 Q1022 RMK A3021 R1129//95 RED
Conditions at: OAKB (KABUL INTL (MIL), AF) observed 0252 UTC 19 January 2019
Temperature: 0.0°C (32°F)
Dewpoint: 0.0°C (32°F) [RH = 100%]
Pressure (altimeter): 30.18 inches Hg (1022.0 mb)
Winds: from the E (100 degrees) at 2 MPH (2 knots; 1.0 m/s)
Visibility: 0.37 miles (0.60 km)
Ceiling: 800 feet AGL
Clouds: scattered clouds at 300 feet AGL
overcast cloud deck at 800 feet AGL
Weather: SN FG  (moderate snow, fog)

METAR text: OAKB 190250Z 09002KT 1000 0700S -SN BR SCT003 OVC008 00/M00 Q1022 NOSIG RMK A3020 R1129//95 AMB AMB
Conditions at: OAKB (KABUL INTL (MIL), AF) observed 0250 UTC 19 January 2019
Temperature: 0.0°C (32°F)
Dewpoint: 0.0°C (32°F) [RH = 100%]
Pressure (altimeter): 30.18 inches Hg (1022.0 mb)
Winds: from the E (90 degrees) at 2 MPH (2 knots; 1.0 m/s)
Visibility: 0.62 miles (1.00 km)
Ceiling: 800 feet AGL
Clouds: scattered clouds at 300 feet AGL
overcast cloud deck at 800 feet AGL
Weather: -SN BR  (light snow, mist)

METAR text: OAKB 190211Z 13002KT 1600 1000SE -SN BR OVC003 00/M00 Q1022 RMK A3020 R1129//95 YLO
Conditions at: OAKB (KABUL INTL (MIL), AF) observed 0211 UTC 19 January 2019
Temperature: 0.0°C (32°F)
Dewpoint: 0.0°C (32°F) [RH = 100%]
Pressure (altimeter): 30.18 inches Hg (1022.0 mb)
Winds: from the SE (130 degrees) at 2 MPH (2 knots; 1.0 m/s)
Visibility: 0.99 miles (1.59 km)
Ceiling: 300 feet AGL
Clouds: overcast cloud deck at 300 feet AGL
Weather: -SN BR  (light snow, mist)

METAR text: OAKB 190153Z VRB02KT 1000 -SN BR BKN003 00/M00 Q1022 RMK A3020 R1129//95 AMB
Conditions at: OAKB (KABUL INTL (MIL), AF) observed 0153 UTC 19 January 2019
Temperature: 0.0°C (32°F)
Dewpoint: 0.0°C (32°F) [RH = 100%]
Pressure (altimeter): 30.18 inches Hg (1022.0 mb)
Winds: variable direction winds at 2 MPH (2 knots; 1.0 m/s)
Visibility: 0.62 miles (1.00 km)
Ceiling: 300 feet AGL
Clouds: broken clouds at 300 feet AGL
Weather: -SN BR  (light snow, mist)

METAR text: OAKB 190150Z 00000KT 1600 -SN BR FEW004 BKN007 00/M00 Q1022 NOSIG RMK A3019 R1129//95 YLO YLO
Conditions at: OAKB (KABUL INTL (MIL), AF) observed 0150 UTC 19 January 2019
Temperature: 0.0°C (32°F)
Dewpoint: 0.0°C (32°F) [RH = 100%]
Pressure (altimeter): 30.18 inches Hg (1022.0 mb)
Winds: calm
Visibility: 0.99 miles (1.59 km)
Ceiling: 700 feet AGL
Clouds: few clouds at 400 feet AGL
broken clouds at 700 feet AGL
Weather: -SN BR  (light snow, mist)

METAR text: OAKB 190100Z VRB03KT 1500 -RASN BR FEW005 BKN008 00/M00 Q1022 RMK A3019 R1129//95 AMB
Conditions at: OAKB (KABUL INTL (MIL), AF) observed 0100 UTC 19 January 2019
Temperature: 0.0°C (32°F)
Dewpoint: 0.0°C (32°F) [RH = 100%]
Pressure (altimeter): 30.18 inches Hg (1022.0 mb)
Winds: variable direction winds at 3 MPH (3 knots; 1.5 m/s)
Visibility: 0.93 miles (1.50 km)
Ceiling: 800 feet AGL
Clouds: few clouds at 500 feet AGL
broken clouds at 800 feet AGL
Weather: -RA -SN BR  (light rain, light snow, mist)

METAR text: OAKB 190050Z VRB03KT 3500 -RASN BR SCT008 BKN030 01/M00 Q1022 NOSIG RMK A3019 R1129//95 YLO YLO
Conditions at: OAKB (KABUL INTL (MIL), AF) observed 0050 UTC 19 January 2019
Temperature: 1.0°C (34°F)
Dewpoint: 0.0°C (32°F) [RH = 93%]
Pressure (altimeter): 30.18 inches Hg (1022.0 mb)
Winds: variable direction winds at 3 MPH (3 knots; 1.5 m/s)
Visibility: 2.17 miles (3.49 km)
Ceiling: 3000 feet AGL
Clouds: scattered clouds at 800 feet AGL
broken clouds at 3000 feet AGL
Weather: -RA -SN BR  (light rain, light snow, mist)

METAR text: OAKB 182350Z 33004KT 9999 -RASN SCT007 BKN030 01/00 Q1022 NOSIG RMK A3018 R1129//95 BLU YLO
Conditions at: OAKB (KABUL INTL (MIL), AF) observed 2350 UTC 18 January 2019
Temperature: 1.0°C (34°F)
Dewpoint: 0.0°C (32°F) [RH = 93%]
Pressure (altimeter): 30.18 inches Hg (1022.0 mb)
Winds: from the NNW (330 degrees) at 5 MPH (4 knots; 2.1 m/s)
Visibility: 6 or more miles (10+ km)
Ceiling: 3000 feet AGL
Clouds: scattered clouds at 700 feet AGL
broken clouds at 3000 feet AGL
Weather: -RA -SN  (light rain, light snow)

METAR text: OAKB 182250Z 16003KT 9999 2500N BCFG SCT010 BKN020 00/M00 Q1022 RESN RMK A3020 R1129//95 WHT YLO
Conditions at: OAKB (KABUL INTL (MIL), AF) observed 2250 UTC 18 January 2019
Temperature: 0.0°C (32°F)
Dewpoint: 0.0°C (32°F) [RH = 100%]
Pressure (altimeter): 30.18 inches Hg (1022.0 mb)
Winds: from the SSE (160 degrees) at 3 MPH (3 knots; 1.5 m/s)
Visibility: 6 or more miles (10+ km)
Ceiling: 2000 feet AGL
Clouds: scattered clouds at 1000 feet AGL
broken clouds at 2000 feet AGL
Weather: BCFG  (patches of fog)

METAR text: OAKB 182200Z VRB02KT 9999 -SN SCT007 BKN025 00/M00 Q1023 RMK A3022 R1129//95 BLU
Conditions at: OAKB (KABUL INTL (MIL), AF) observed 2200 UTC 18 January 2019
Temperature: 0.0°C (32°F)
Dewpoint: 0.0°C (32°F) [RH = 100%]
Pressure (altimeter): 30.21 inches Hg (1023.0 mb)
Winds: variable direction winds at 2 MPH (2 knots; 1.0 m/s)
Visibility: 6 or more miles (10+ km)
Ceiling: 2500 feet AGL
Clouds: scattered clouds at 700 feet AGL
broken clouds at 2500 feet AGL
Weather: -SN  (light snow)

METAR text: OAKB 182150Z VRB03KT 1000 -SN BR FEW007 BKN025 00/M00 Q1023 NOSIG RMK A3022 R1129//95 AMB AMB
Conditions at: OAKB (KABUL INTL (MIL), AF) observed 2150 UTC 18 January 2019
Temperature: 0.0°C (32°F)
Dewpoint: 0.0°C (32°F) [RH = 100%]
Pressure (altimeter): 30.21 inches Hg (1023.0 mb)
Winds: variable direction winds at 3 MPH (3 knots; 1.5 m/s)
Visibility: 0.62 miles (1.00 km)
Ceiling: 2500 feet AGL
Clouds: few clouds at 700 feet AGL
broken clouds at 2500 feet AGL
Weather: -SN BR  (light snow, mist)

METAR text: OAKB 182115Z VRB02KT 0800 -SN FZFG FEW005 BKN015 00/M00 Q1023 RMK A3022 R1129//95 AMB
Conditions at: OAKB (KABUL INTL (MIL), AF) observed 2115 UTC 18 January 2019
Temperature: 0.0°C (32°F)
Dewpoint: 0.0°C (32°F) [RH = 100%]
Pressure (altimeter): 30.21 inches Hg (1023.0 mb)
Winds: variable direction winds at 2 MPH (2 knots; 1.0 m/s)
Visibility: 0.50 miles (0.80 km)
Ceiling: 1500 feet AGL
Clouds: few clouds at 500 feet AGL
broken clouds at 1500 feet AGL
Weather: -SN FZFG  (light snow, freezing fog)

METAR text: OAKB 182050Z 34004KT 3500 -SN BR FEW005 BKN015 00/00 Q1023 NOSIG RMK A3022 R1129//95 YLO YLO
Conditions at: OAKB (KABUL INTL (MIL), AF) observed 2050 UTC 18 January 2019
Temperature: 0.0°C (32°F)
Dewpoint: 0.0°C (32°F) [RH = 100%]
Pressure (altimeter): 30.21 inches Hg (1023.0 mb)
Winds: from the NNW (340 degrees) at 5 MPH (4 knots; 2.1 m/s)
Visibility: 2.17 miles (3.49 km)
Ceiling: 1500 feet AGL
Clouds: few clouds at 500 feet AGL
broken clouds at 1500 feet AGL
Weather: -SN BR  (light snow, mist)

METAR text: OAKB 182000Z VRB02KT 3000 -RASN BR FEW009 BKN025 00/M00 Q1023 RMK A3022 R1129//95 YLO
Conditions at: OAKB (KABUL INTL (MIL), AF) observed 2000 UTC 18 January 2019
Temperature: 0.0°C (32°F)
Dewpoint: 0.0°C (32°F) [RH = 100%]
Pressure (altimeter): 30.21 inches Hg (1023.0 mb)
Winds: variable direction winds at 2 MPH (2 knots; 1.0 m/s)
Visibility: 1.86 miles (2.99 km)
Ceiling: 2500 feet AGL
Clouds: few clouds at 900 feet AGL
broken clouds at 2500 feet AGL
Weather: -RA -SN BR  (light rain, light snow, mist)

METAR text: OAKB 181925Z VRB02KT 0600 SN FZFG VV003 00/M00 Q1023 RMK A3022 R1129//95 RED
Conditions at: OAKB (KABUL INTL (MIL), AF) observed 1925 UTC 18 January 2019
Temperature: 0.0°C (32°F)
Dewpoint: 0.0°C (32°F) [RH = 100%]
Pressure (altimeter): 30.21 inches Hg (1023.0 mb)
Winds: variable direction winds at 2 MPH (2 knots; 1.0 m/s)
Visibility: 0.37 miles (0.60 km)
Ceiling: indefinite ceiling with vertical visibility of 300 feet AGL
Clouds: obscured sky
Weather: SN FZFG  (moderate snow, freezing fog)

METAR text: OAKB 181902Z VRB03KT 0800 SN FZFG VV004 00/M00 Q1023 RMK A3022 R1129//95 RED
Conditions at: OAKB (KABUL INTL (MIL), AF) observed 1902 UTC 18 January 2019
Temperature: 0.0°C (32°F)
Dewpoint: 0.0°C (32°F) [RH = 100%]
Pressure (altimeter): 30.21 inches Hg (1023.0 mb)
Winds: variable direction winds at 3 MPH (3 knots; 1.5 m/s)
Visibility: 0.50 miles (0.80 km)
Ceiling: indefinite ceiling with vertical visibility of 400 feet AGL
Clouds: obscured sky
Weather: SN FZFG  (moderate snow, freezing fog)

METAR text: OAKB 181850Z 00000KT 1000 -SN BR SCT007 OVC020 00/M00 Q1023 NOSIG RMK A3022 R1129//95 AMB AMB
Conditions at: OAKB (KABUL INTL (MIL), AF) observed 1850 UTC 18 January 2019
Temperature: 0.0°C (32°F)
Dewpoint: 0.0°C (32°F) [RH = 100%]
Pressure (altimeter): 30.21 inches Hg (1023.0 mb)
Winds: calm
Visibility: 0.62 miles (1.00 km)
Ceiling: 2000 feet AGL
Clouds: scattered clouds at 700 feet AGL
overcast cloud deck at 2000 feet AGL
Weather: -SN BR  (light snow, mist)

METAR text: OAKB 181750Z VRB02KT 1400 -SN BR SCT010 OVC020 00/00 Q1023 NOSIG RMK A3022 R1129//95 AMB AMB
Conditions at: OAKB (KABUL INTL (MIL), AF) observed 1750 UTC 18 January 2019
Temperature: 0.0°C (32°F)
Dewpoint: 0.0°C (32°F) [RH = 100%]
Pressure (altimeter): 30.21 inches Hg (1023.0 mb)
Winds: variable direction winds at 2 MPH (2 knots; 1.0 m/s)
Visibility: 0.87 miles (1.40 km)
Ceiling: 2000 feet AGL
Clouds: scattered clouds at 1000 feet AGL
overcast cloud deck at 2000 feet AGL
Weather: -SN BR  (light snow, mist)

METAR text: OAKB 181702Z VRB03KT 2000 -RASN BR SCT008 OVC020 01/00 Q1023 RMK A3022 R1129//95 YLO
Conditions at: OAKB (KABUL INTL (MIL), AF) observed 1702 UTC 18 January 2019
Temperature: 1.0°C (34°F)
Dewpoint: 0.0°C (32°F) [RH = 93%]
Pressure (altimeter): 30.21 inches Hg (1023.0 mb)
Winds: variable direction winds at 3 MPH (3 knots; 1.5 m/s)
Visibility: 1.24 miles (2.00 km)
Ceiling: 2000 feet AGL
Clouds: scattered clouds at 800 feet AGL
overcast cloud deck at 2000 feet AGL
Weather: -RA -SN BR  (light rain, light snow, mist)

METAR text: OAKB 181650Z 00000KT 1200 -SN BR SCT007 OVC025 00/M00 Q1023 NOSIG RMK A3021 AMB AMB
Conditions at: OAKB (KABUL INTL (MIL), AF) observed 1650 UTC 18 January 2019
Temperature: 0.0°C (32°F)
Dewpoint: 0.0°C (32°F) [RH = 100%]
Pressure (altimeter): 30.21 inches Hg (1023.0 mb)
Winds: calm
Visibility: 0.75 miles (1.21 km)
Ceiling: 2500 feet AGL
Clouds: scattered clouds at 700 feet AGL
overcast cloud deck at 2500 feet AGL
Weather: -SN BR  (light snow, mist)

METAR text: OAKB 181630Z 17002KT 1200 -SN BR FEW007 OVC025 00/M00 Q1022 RMK A3021 R1129//95 AMB
Conditions at: OAKB (KABUL INTL (MIL), AF) observed 1630 UTC 18 January 2019
Temperature: 0.0°C (32°F)
Dewpoint: 0.0°C (32°F) [RH = 100%]
Pressure (altimeter): 30.18 inches Hg (1022.0 mb)
Winds: from the S (170 degrees) at 2 MPH (2 knots; 1.0 m/s)
Visibility: 0.75 miles (1.21 km)
Ceiling: 2500 feet AGL
Clouds: few clouds at 700 feet AGL
overcast cloud deck at 2500 feet AGL
Weather: -SN BR  (light snow, mist)

METAR text: OAKB 181550Z 34004KT 3000 -SN BR FEW010 OVC025 01/M00 Q1023 NOSIG RMK A3021 YLO YLO
Conditions at: OAKB (KABUL INTL (MIL), AF) observed 1550 UTC 18 January 2019
Temperature: 1.0°C (34°F)
Dewpoint: 0.0°C (32°F) [RH = 93%]
Pressure (altimeter): 30.21 inches Hg (1023.0 mb)
Winds: from the NNW (340 degrees) at 5 MPH (4 knots; 2.1 m/s)
Visibility: 1.86 miles (2.99 km)
Ceiling: 2500 feet AGL
Clouds: few clouds at 1000 feet AGL
overcast cloud deck at 2500 feet AGL
Weather: -SN BR  (light snow, mist)

METAR text: OAKB 181525Z 32007KT 3500 -SN BR FEW020 OVC035 01/00 Q1022 RMK A3021 YLO
Conditions at: OAKB (KABUL INTL (MIL), AF) observed 1525 UTC 18 January 2019
Temperature: 1.0°C (34°F)
Dewpoint: 0.0°C (32°F) [RH = 93%]
Pressure (altimeter): 30.18 inches Hg (1022.0 mb)
Winds: from the NW (320 degrees) at 8 MPH (7 knots; 3.6 m/s)
Visibility: 2.17 miles (3.49 km)
Ceiling: 3500 feet AGL
Clouds: few clouds at 2000 feet AGL
overcast cloud deck at 3500 feet AGL
Weather: -SN BR  (light snow, mist)

METAR text: OAKB 181450Z 30002KT 7000 -RASN FEW020 OVC060 01/00 Q1022 NOSIG RMK A3020 WHT WHT
Conditions at: OAKB (KABUL INTL (MIL), AF) observed 1450 UTC 18 January 2019
Temperature: 1.0°C (34°F)
Dewpoint: 0.0°C (32°F) [RH = 93%]
Pressure (altimeter): 30.18 inches Hg (1022.0 mb)
Winds: from the WNW (300 degrees) at 2 MPH (2 knots; 1.0 m/s)
Visibility: 4 miles ( 7 km)
Ceiling: 6000 feet AGL
Clouds: few clouds at 2000 feet AGL
overcast cloud deck at 6000 feet AGL
Weather: -RA -SN  (light rain, light snow)

METAR text: OAKB 181350Z 35004KT 4000 2000S -RASN BR FEW014 OVC017 01/00 Q1022 NOSIG RMK A3020 GRN GRN
Conditions at: OAKB (KABUL INTL (MIL), AF) observed 1350 UTC 18 January 2019
Temperature: 1.0°C (34°F)
Dewpoint: 0.0°C (32°F) [RH = 93%]
Pressure (altimeter): 30.18 inches Hg (1022.0 mb)
Winds: from the N (350 degrees) at 5 MPH (4 knots; 2.1 m/s)
Visibility: 2.49 miles (4.01 km)
Ceiling: 1700 feet AGL
Clouds: few clouds at 1400 feet AGL
overcast cloud deck at 1700 feet AGL
Weather: SN -RA BR  (moderate snow, light rain, mist)

METAR text: OAKB 181250Z 32004KT 4000 -RASN BR FEW009 OVC012 02/00 Q1022 NOSIG RMK A3019 GRN GRN
Conditions at: OAKB (KABUL INTL (MIL), AF) observed 1250 UTC 18 January 2019
Temperature: 2.0°C (36°F)
Dewpoint: 0.0°C (32°F) [RH = 87%]
Pressure (altimeter): 30.18 inches Hg (1022.0 mb)
Winds: from the NW (320 degrees) at 5 MPH (4 knots; 2.1 m/s)
Visibility: 2.49 miles (4.01 km)
Ceiling: 1200 feet AGL
Clouds: few clouds at 900 feet AGL
overcast cloud deck at 1200 feet AGL
Weather: -RA -SN BR  (light rain, light snow, mist)

METAR text: OAKB 181150Z 33006KT 7000 -SHRA BR FEW010 SCT030 OVC060 02/00 Q1022 NOSIG RMK A3019 WHT WHT
Conditions at: OAKB (KABUL INTL (MIL), AF) observed 1150 UTC 18 January 2019
Temperature: 2.0°C (36°F)
Dewpoint: 0.0°C (32°F) [RH = 87%]
Pressure (altimeter): 30.18 inches Hg (1022.0 mb)
Winds: from the NNW (330 degrees) at 7 MPH (6 knots; 3.1 m/s)
Visibility: 4 miles ( 7 km)
Ceiling: 6000 feet AGL
Clouds: few clouds at 1000 feet AGL
scattered clouds at 3000 feet AGL
overcast cloud deck at 6000 feet AGL
Weather: -SHRA BR  (light rain showers, mist)

METAR text: OAKB 181050Z 35006KT 8000 -DZ BR FEW012 SCT020 OVC065 02/00 Q1022 NOSIG RMK A3020 WHT WHT
Conditions at: OAKB (KABUL INTL (MIL), AF) observed 1050 UTC 18 January 2019
Temperature: 2.0°C (36°F)
Dewpoint: 0.0°C (32°F) [RH = 87%]
Pressure (altimeter): 30.18 inches Hg (1022.0 mb)
Winds: from the N (350 degrees) at 7 MPH (6 knots; 3.1 m/s)
Visibility: 5 miles ( 8 km)
Ceiling: 6500 feet AGL
Clouds: few clouds at 1200 feet AGL
scattered clouds at 2000 feet AGL
overcast cloud deck at 6500 feet AGL
Weather: -DZ BR  (light drizzle, mist)

METAR text: OAKB 180950Z 35004KT 4000 -RASN BR FEW010 SCT015 OVC021 02/01 Q1022 NOSIG RMK A3021 GRN GRN
Conditions at: OAKB (KABUL INTL (MIL), AF) observed 0950 UTC 18 January 2019
Temperature: 2.0°C (36°F)
Dewpoint: 1.0°C (34°F) [RH = 93%]
Pressure (altimeter): 30.18 inches Hg (1022.0 mb)
Winds: from the N (350 degrees) at 5 MPH (4 knots; 2.1 m/s)
Visibility: 2.49 miles (4.01 km)
Ceiling: 2100 feet AGL
Clouds: few clouds at 1000 feet AGL
scattered clouds at 1500 feet AGL
overcast cloud deck at 2100 feet AGL
Weather: -RA -SN BR  (light rain, light snow, mist)

METAR text: OAKB 180850Z 35008KT 4000 -RASN BR FEW010 SCT014 OVC020 02/00 Q1023 NOSIG RMK A3022 GRN GRN
Conditions at: OAKB (KABUL INTL (MIL), AF) observed 0850 UTC 18 January 2019
Temperature: 2.0°C (36°F)
Dewpoint: 0.0°C (32°F) [RH = 87%]
Pressure (altimeter): 30.21 inches Hg (1023.0 mb)
Winds: from the N (350 degrees) at 9 MPH (8 knots; 4.1 m/s)
Visibility: 2.49 miles (4.01 km)
Ceiling: 2000 feet AGL
Clouds: few clouds at 1000 feet AGL
scattered clouds at 1400 feet AGL
overcast cloud deck at 2000 feet AGL
Weather: -RA -SN BR  (light rain, light snow, mist)

METAR text: OAKB 180750Z 36005KT 7000 -RA BR FEW010 SCT016 OVC026 03/M00 Q1023 NOSIG RMK A3023 WHT WHT
Conditions at: OAKB (KABUL INTL (MIL), AF) observed 0750 UTC 18 January 2019
Temperature: 3.0°C (37°F)
Dewpoint: 0.0°C (32°F) [RH = 81%]
Pressure (altimeter): 30.21 inches Hg (1023.0 mb)
Winds: from the N (360 degrees) at 6 MPH (5 knots; 2.6 m/s)
Visibility: 4 miles ( 7 km)
Ceiling: 2600 feet AGL
Clouds: few clouds at 1000 feet AGL
scattered clouds at 1600 feet AGL
overcast cloud deck at 2600 feet AGL
Weather: -RA BR  (light rain, mist)

METAR text: OAKB 180650Z 32006KT 7000 -RA BR FEW020 SCT025 OVC040 02/01 Q1024 NOSIG RMK A3026 WHT WHT
Conditions at: OAKB (KABUL INTL (MIL), AF) observed 0650 UTC 18 January 2019
Temperature: 2.0°C (36°F)
Dewpoint: 1.0°C (34°F) [RH = 93%]
Pressure (altimeter): 30.24 inches Hg (1024.0 mb)
Winds: from the NW (320 degrees) at 7 MPH (6 knots; 3.1 m/s)
Visibility: 4 miles ( 7 km)
Ceiling: 4000 feet AGL
Clouds: few clouds at 2000 feet AGL
scattered clouds at 2500 feet AGL
overcast cloud deck at 4000 feet AGL
Weather: -RA BR  (light rain, mist)

METAR text: OAKB 180550Z 33005KT 6000 -SHRA BR FEW018 SCT025 OVC040 02/M00 Q1025 NOSIG RMK A3027 WHT WHT
Conditions at: OAKB (KABUL INTL (MIL), AF) observed 0550 UTC 18 January 2019
Temperature: 2.0°C (36°F)
Dewpoint: 0.0°C (32°F) [RH = 87%]
Pressure (altimeter): 30.27 inches Hg (1025.0 mb)
Winds: from the NNW (330 degrees) at 6 MPH (5 knots; 2.6 m/s)
Visibility: 4 miles ( 6 km)
Ceiling: 4000 feet AGL
Clouds: few clouds at 1800 feet AGL
scattered clouds at 2500 feet AGL
overcast cloud deck at 4000 feet AGL
Weather: -SHRA BR  (light rain showers, mist)

METAR text: OAKB 180450Z 35005KT 7000 -SHRA BR OVC055 03/M02 Q1024 NOSIG RMK A3024 WHT WHT
Conditions at: OAKB (KABUL INTL (MIL), AF) observed 0450 UTC 18 January 2019
Temperature: 3.0°C (37°F)
Dewpoint: -2.0°C (28°F) [RH = 70%]
Pressure (altimeter): 30.24 inches Hg (1024.0 mb)
Winds: from the N (350 degrees) at 6 MPH (5 knots; 2.6 m/s)
Visibility: 4 miles ( 7 km)
Ceiling: 5500 feet AGL
Clouds: overcast cloud deck at 5500 feet AGL
Weather: -SHRA BR  (light rain showers, mist)

METAR text: OAKB 180425Z 36005KT 7000 -SHRA BR BKN050 OVC060 03/M02 Q1024 RMK A3024 WHT
Conditions at: OAKB (KABUL INTL (MIL), AF) observed 0425 UTC 18 January 2019
Temperature: 3.0°C (37°F)
Dewpoint: -2.0°C (28°F) [RH = 70%]
Pressure (altimeter): 30.24 inches Hg (1024.0 mb)
Winds: from the N (360 degrees) at 6 MPH (5 knots; 2.6 m/s)
Visibility: 4 miles ( 7 km)
Ceiling: 5000 feet AGL
Clouds: broken clouds at 5000 feet AGL
overcast cloud deck at 6000 feet AGL
Weather: -SHRA BR  (light rain showers, mist)

METAR text: OAKB 180350Z VRB02KT 4000 1500S FU BKN060 03/M02 Q1023 NOSIG RMK A3022 GRN GRN
Conditions at: OAKB (KABUL INTL (MIL), AF) observed 0350 UTC 18 January 2019
Temperature: 3.0°C (37°F)
Dewpoint: -2.0°C (28°F) [RH = 70%]
Pressure (altimeter): 30.21 inches Hg (1023.0 mb)
Winds: variable direction winds at 2 MPH (2 knots; 1.0 m/s)
Visibility: 2.49 miles (4.01 km)
Ceiling: 6000 feet AGL
Clouds: broken clouds at 6000 feet AGL
Weather: FU  (smoke)

Forecast for: OAKB (KABUL INTL (MIL), AF)
Text: TAF OAKB 191105Z 1912/2012 03005KT 2000 -SNRA BR SCT008 OVC020
Forecast period: 1200 to 1600 UTC 19 January 2019
Forecast type: FROM: standard forecast or significant change
Winds: from the NNE (30 degrees) at 6 MPH (5 knots; 2.6 m/s)
Visibility: 1.24 miles (2.00 km)
Ceiling: 2000 feet AGL
Clouds: scattered clouds at 800 feet AGL
overcast cloud deck at 2000 feet AGL
Weather: -SN -RA BR  (light snow, light rain, mist)
Text: TEMPO 1912/1916 1200 SNRA BR BKN006 OVC015
Forecast period: 1200 to 1600 UTC 19 January 2019
Forecast type: TEMPORARY: The following changes expected for less than half the time period
Visibility: 0.75 miles (1.21 km)
Ceiling: 600 feet AGL
Clouds: broken clouds at 600 feet AGL
overcast cloud deck at 1500 feet AGL
Weather: SN RA BR  (moderate snow, moderate rain, mist)
Text: BECMG 1916/1918 VRB02KT 1500 -SN BR SCT006 OVC010
Forecast period: 1600 UTC 19 January 2019 to 1000 UTC 20 January 2019
Forecast type: BECOMING: Conditions expected to become as follows by 1800 UTC 19 January 2019
Winds: variable direction winds at 2 MPH (2 knots; 1.0 m/s)
Visibility: 0.93 miles (1.50 km)
Ceiling: 1000 feet AGL
Clouds: scattered clouds at 600 feet AGL
overcast cloud deck at 1000 feet AGL
Weather: -SN BR  (light snow, mist)
Text: TEMPO 1920/2008 0700 SN FG SCT003 OVC006
Forecast period: 2000 UTC 19 January 2019 to 0800 UTC 20 January 2019
Forecast type: TEMPORARY: The following changes expected for less than half the time period
Visibility: 0.43 miles (0.69 km)
Ceiling: 600 feet AGL
Clouds: scattered clouds at 300 feet AGL
overcast cloud deck at 600 feet AGL
Weather: SN FG  (moderate snow, fog)
Text: BECMG 2010/2012 3000 BR SCT008 BKN025
Forecast period: 1000 to 1200 UTC 20 January 2019
Forecast type: BECOMING: Conditions expected to become as follows by 1200 UTC 20 January 2019
Winds: variable direction winds at 2 MPH (2 knots; 1.0 m/s)
Visibility: 1.86 miles (2.99 km)
Ceiling: 2500 feet AGL
Clouds: scattered clouds at 800 feet AGL
broken clouds at 2500 feet AGL
Weather: BR  (mist)